Time;durP1;ratioP1;P1;durP2;ratioP2;P2;SDS_P1;SDS_P2;PMS_P1;PMS_P2;Temp;Humidity;BMP_temperature;BMP_pressure;BME280_temperature;BME280_humidity;BME280_pressure;Samples;Min_cycle;Max_cycle;Signal;HPM_P1;HPM_P2
2020/12/21 15:15:08;;;;;;;133.37;58.97;;;;;;;1.57;88.88;99911.70;1810728;79;22385;-64
2020/12/21 15:17:34;;;;;;;120.70;58.77;;;;;;;1.61;89.41;99912.27;1792519;80;21524;-64
2020/12/21 15:20:00;;;;;;;109.63;55.40;;;;;;;1.64;90.56;99917.63;1794835;80;21298;-65
2020/12/21 15:22:25;;;;;;;107.00;53.17;;;;;;;1.63;91.95;99919.48;1775887;81;21132;-66
2020/12/21 15:24:51;;;;;;;100.30;50.83;;;;;;;1.65;93.66;99917.34;1775961;81;21071;-63
2020/12/21 15:27:17;;;;;;;96.90;46.03;;;;;;;1.70;95.11;99921.92;1776301;81;21110;-65
2020/12/21 15:29:43;;;;;;;89.60;45.53;;;;;;;1.75;96.28;99917.95;1762286;80;21070;-65
2020/12/21 15:32:09;;;;;;;89.03;44.33;;;;;;;1.81;97.32;99908.89;1753708;80;21115;-63
2020/12/21 15:34:34;;;;;;;85.00;43.60;;;;;;;1.88;98.29;99915.61;1784890;80;21082;-65
2020/12/21 15:37:00;;;;;;;77.27;40.83;;;;;;;1.99;99.33;99915.69;1787986;80;21114;-63
2020/12/21 15:39:26;;;;;;;84.03;42.50;;;;;;;2.06;99.77;99910.37;1787878;80;21086;-62
2020/12/21 15:41:52;;;;;;;78.93;40.50;;;;;;;2.13;100.00;99898.89;1795527;80;21082;-64
2020/12/21 15:44:17;;;;;;;81.07;42.03;;;;;;;2.22;100.00;99910.69;1796608;80;21123;-62
2020/12/21 15:46:43;;;;;;;71.73;36.53;;;;;;;2.30;100.00;99910.72;1796451;80;21160;-64
2020/12/21 15:49:09;;;;;;;74.57;39.10;;;;;;;2.37;100.00;99911.28;1796644;80;21541;-63
2020/12/21 15:51:35;;;;;;;74.80;36.07;;;;;;;2.37;100.00;99905.39;1796218;80;21238;-62
2020/12/21 15:54:00;;;;;;;73.77;38.43;;;;;;;2.31;97.82;99905.64;1796357;80;21098;-60
2020/12/21 15:56:26;;;;;;;70.93;36.03;;;;;;;2.32;99.92;99900.04;1796283;80;21297;-61
2020/12/21 15:58:52;;;;;;;72.40;39.00;;;;;;;2.16;97.23;99897.03;1796563;80;21511;-64
2020/12/21 16:01:18;;;;;;;73.57;38.80;;;;;;;2.12;98.24;99897.28;1796491;80;21091;-63
2020/12/21 16:03:43;;;;;;;75.50;37.53;;;;;;;2.13;98.79;99898.09;1796658;80;21150;-59
2020/12/21 16:06:12;;;;;;;78.70;39.73;;;;;;;2.14;99.08;99892.98;1796552;80;21130;-63
2020/12/21 16:08:38;;;;;;;72.20;36.47;;;;;;;2.18;99.02;99896.22;1796450;80;21154;-64
2020/12/21 16:11:04;;;;;;;84.63;39.13;;;;;;;2.22;98.75;99899.17;1796895;80;21141;-63
2020/12/21 16:13:30;;;;;;;75.77;39.87;;;;;;;2.22;98.57;99899.98;1795691;80;21154;-61
2020/12/21 16:15:56;;;;;;;71.97;37.13;;;;;;;2.21;98.40;99889.00;1794260;80;21064;-63
2020/12/21 16:18:22;;;;;;;72.13;37.53;;;;;;;2.21;98.29;99898.37;1794346;80;21551;-62
2020/12/21 16:20:48;;;;;;;74.27;36.77;;;;;;;2.19;98.07;99899.70;1794309;80;21222;-60
2020/12/21 16:23:14;;;;;;;73.57;40.00;;;;;;;2.17;97.75;99897.31;1794263;80;21249;-62
2020/12/21 16:25:41;;;;;;;79.13;39.83;;;;;;;2.10;97.39;99894.60;1793878;80;21111;-61
2020/12/21 16:28:07;;;;;;;77.73;40.03;;;;;;;1.92;97.08;99875.24;1793526;80;21161;-61
2020/12/21 16:30:33;;;;;;;80.43;42.20;;;;;;;1.97;96.74;99894.53;1793826;80;21103;-62
2020/12/21 16:32:59;;;;;;;81.27;40.90;;;;;;;1.96;96.70;99895.59;1793744;80;21129;-64
2020/12/21 16:35:26;;;;;;;81.83;40.73;;;;;;;1.95;96.49;99893.97;1793534;80;21091;-62
2020/12/21 16:37:52;;;;;;;80.07;41.67;;;;;;;1.98;95.58;99891.33;1793504;80;21140;-60
2020/12/21 16:40:18;;;;;;;81.83;42.33;;;;;;;1.97;95.48;99889.19;1793600;80;21091;-62
2020/12/21 16:42:44;;;;;;;79.57;40.03;;;;;;;2.00;96.68;99894.53;1793790;80;21532;-61
2020/12/21 16:45:13;;;;;;;80.93;40.73;;;;;;;2.07;97.25;99895.09;1793661;80;21148;-63
2020/12/21 16:47:39;;;;;;;84.77;42.97;;;;;;;2.13;97.48;99890.87;1793089;80;21067;-61
2020/12/21 16:50:05;;;;;;;87.70;41.17;;;;;;;2.20;97.72;99887.41;1765534;80;21095;-62
2020/12/21 16:52:30;;;;;;;81.43;40.13;;;;;;;2.25;97.60;99887.41;1793843;80;21209;-60
2020/12/21 16:54:56;;;;;;;73.47;38.83;;;;;;;2.30;97.49;99882.61;1793895;80;21221;-62
2020/12/21 16:57:22;;;;;;;77.20;39.30;;;;;;;2.31;97.53;99882.89;1793556;80;21189;-61
2020/12/21 16:59:49;;;;;;;79.30;41.50;;;;;;;2.37;97.48;99876.47;1794134;80;21095;-62
2020/12/21 17:02:15;;;;;;;78.30;43.07;;;;;;;2.31;96.39;99881.02;1793651;80;21132;-62
2020/12/21 17:04:40;;;;;;;82.97;41.10;;;;;;;2.29;96.99;99879.13;1793556;80;21111;-61
2020/12/21 17:07:06;;;;;;;82.90;42.43;;;;;;;2.30;96.79;99879.94;1793586;80;21170;-61
2020/12/21 17:09:32;;;;;;;85.00;43.10;;;;;;;2.32;96.25;99886.66;1793872;80;21528;-60
2020/12/21 17:12:00;;;;;;;77.43;43.40;;;;;;;2.33;95.79;99870.03;1793614;80;21547;-63
2020/12/21 17:14:25;;;;;;;81.23;43.10;;;;;;;2.30;95.32;99871.37;1788816;79;21173;-62
2020/12/21 17:16:53;;;;;;;82.30;43.00;;;;;;;2.38;94.99;99868.72;1753411;80;21540;-64
2020/12/21 17:19:19;;;;;;;80.13;43.57;;;;;;;2.41;94.92;99877.03;1780721;80;21089;-60
2020/12/21 17:21:47;;;;;;;80.83;42.37;;;;;;;2.43;95.06;99876.25;1775161;80;21608;-65
2020/12/21 17:24:15;;;;;;;86.83;47.73;;;;;;;2.40;94.98;99879.42;1779011;80;21180;-65
2020/12/21 17:26:41;;;;;;;88.63;46.43;;;;;;;2.36;94.99;99883.70;1780421;80;21188;-64
2020/12/21 17:29:07;;;;;;;90.10;44.77;;;;;;;2.29;94.62;99888.50;1773873;80;21162;-65
2020/12/21 17:31:33;;;;;;;102.70;54.70;;;;;;;2.19;94.65;99887.13;1778629;80;21156;-65
2020/12/21 17:33:59;;;;;;;98.27;57.90;;;;;;;2.16;94.78;99883.65;1779865;80;21110;-62
2020/12/21 17:36:25;;;;;;;117.67;64.03;;;;;;;2.13;94.43;99888.72;1772852;80;21165;-61
2020/12/21 17:38:52;;;;;;;103.40;54.93;;;;;;;2.17;94.11;99894.63;1777371;80;21519;-62
2020/12/21 17:41:17;;;;;;;105.17;54.40;;;;;;;2.26;93.82;99893.57;1781009;80;21112;-64
2020/12/21 17:43:43;;;;;;;100.80;52.97;;;;;;;2.36;93.60;99901.09;1782015;80;21131;-65
2020/12/21 17:46:09;;;;;;;95.03;50.23;;;;;;;2.45;93.66;99897.38;1774485;80;21034;-62
2020/12/21 17:48:35;;;;;;;97.10;51.90;;;;;;;2.51;93.83;99893.67;1778016;80;21204;-63
2020/12/21 17:51:01;;;;;;;94.07;50.37;;;;;;;2.57;93.94;99890.45;1780596;80;21107;-63
2020/12/21 17:53:26;;;;;;;88.90;46.17;;;;;;;2.64;93.98;99891.00;1774076;80;21082;-60
2020/12/21 17:55:52;;;;;;;84.37;45.97;;;;;;;2.71;93.96;99884.32;1777069;80;21100;-61
2020/12/21 17:58:18;;;;;;;94.30;49.70;;;;;;;2.71;93.96;99884.32;1780292;80;21292;-62
2020/12/21 18:00:45;;;;;;;97.43;53.70;;;;;;;2.78;93.70;99890.75;1775158;80;21175;-63
2020/12/21 18:03:11;;;;;;;96.27;55.77;;;;;;;2.79;93.36;99887.02;1780860;80;21180;-67
2020/12/21 18:05:37;;;;;;;93.50;55.00;;;;;;;2.81;92.92;99882.98;1787661;80;21616;-64
2020/12/21 18:08:04;;;;;;;105.97;57.50;;;;;;;2.82;92.24;99882.45;1787675;80;21067;-60
2020/12/21 18:10:30;;;;;;;91.60;51.53;;;;;;;2.79;91.99;99877.63;1788017;80;21608;-60
2020/12/21 18:12:55;;;;;;;97.87;52.10;;;;;;;2.78;91.66;99880.03;1787905;80;21126;-62
2020/12/21 18:15:21;;;;;;;96.10;49.40;;;;;;;2.84;91.54;99883.81;1777072;80;21524;-62
2020/12/21 18:17:47;;;;;;;92.33;46.80;;;;;;;2.90;91.55;99880.59;1774550;81;21087;-59
2020/12/21 18:20:13;;;;;;;89.70;46.20;;;;;;;2.92;91.66;99873.11;1776358;80;21067;-64
2020/12/21 18:22:40;;;;;;;97.23;45.63;;;;;;;2.89;91.83;99865.05;1773259;81;21135;-62
2020/12/21 18:25:06;;;;;;;96.43;48.33;;;;;;;2.89;91.92;99870.41;1779538;81;21118;-64
2020/12/21 18:27:32;;;;;;;101.83;47.10;;;;;;;2.90;92.02;99869.88;1762928;81;21062;-61
2020/12/21 18:29:57;;;;;;;104.60;47.03;;;;;;;2.86;91.90;99867.45;1748620;82;21531;-58
2020/12/21 18:32:27;;;;;;;100.37;49.47;;;;;;;2.83;91.77;99859.42;1748293;82;21093;-64
2020/12/21 18:34:54;;;;;;;98.67;48.07;;;;;;;2.79;91.54;99859.69;1757002;80;21128;-59
2020/12/21 18:37:20;;;;;;;114.37;51.23;;;;;;;2.78;91.21;99861.28;1737530;82;21120;-58
2020/12/21 18:39:47;;;;;;;112.37;50.13;;;;;;;2.74;90.94;99856.19;1755729;80;21103;-60
2020/12/21 18:42:14;;;;;;;105.43;49.47;;;;;;;2.84;90.71;99858.36;1762226;81;21176;-64
2020/12/21 18:44:40;;;;;;;106.43;48.13;;;;;;;2.85;90.63;99851.91;1762460;81;21169;-65
2020/12/21 18:47:07;;;;;;;115.30;49.97;;;;;;;2.87;90.83;99851.13;1762393;81;21112;-59
2020/12/21 18:49:36;;;;;;;112.00;51.07;;;;;;;2.85;91.03;99848.42;1762433;81;21148;-59
2020/12/21 18:52:03;;;;;;;107.77;49.73;;;;;;;2.86;91.20;99849.51;1779007;80;21155;-62
2020/12/21 18:54:30;;;;;;;117.33;54.03;;;;;;;2.87;91.24;99848.98;1779290;80;21071;-60
2020/12/21 18:56:56;;;;;;;113.23;50.23;;;;;;;2.83;91.27;99851.92;1778867;81;21094;-64
2020/12/21 18:59:22;;;;;;;146.20;57.83;;;;;;;2.81;91.09;99850.84;1778835;81;21102;-66
2020/12/21 19:01:48;;;;;;;140.13;60.93;;;;;;;2.82;90.71;99843.61;1779133;81;21086;-58
2020/12/21 19:04:13;;;;;;;145.70;62.53;;;;;;;2.78;90.46;99844.68;1778931;80;21185;-63
2020/12/21 19:06:41;;;;;;;137.10;60.33;;;;;;;2.70;90.23;99845.20;1742693;80;21164;-64
2020/12/21 19:09:08;;;;;;;131.67;58.77;;;;;;;2.77;90.48;99844.44;1737926;82;21298;-64
2020/12/21 19:11:34;;;;;;;139.90;62.03;;;;;;;2.82;90.69;99847.63;1737555;82;21546;-62
2020/12/21 19:13:59;;;;;;;134.73;59.23;;;;;;;2.83;90.79;99845.22;1739489;81;21102;-64
2020/12/21 19:16:30;;;;;;;131.07;55.73;;;;;;;2.89;90.85;99845.48;1772151;80;21063;-65
2020/12/21 19:18:56;;;;;;;131.20;58.93;;;;;;;2.84;90.42;99840.95;1781615;80;21155;-69
2020/12/21 19:21:22;;;;;;;135.77;61.90;;;;;;;2.85;90.64;99845.22;1788117;80;21103;-61
2020/12/21 19:23:47;;;;;;;129.47;57.97;;;;;;;2.81;90.45;99836.10;1790211;80;21633;-61
2020/12/21 19:26:13;;;;;;;100.47;45.57;;;;;;;2.81;90.19;99838.00;1790514;80;21508;-64
2020/12/21 19:28:41;;;;;;;140.83;59.00;;;;;;;2.66;89.46;99833.97;1761441;80;21140;-68
2020/12/21 19:31:07;;;;;;;129.17;57.27;;;;;;;2.75;90.02;99838.52;1790221;80;21218;-65
2020/12/21 19:33:33;;;;;;;130.67;57.30;;;;;;;2.79;90.17;99836.92;1790363;80;21079;-69
2020/12/21 19:35:59;;;;;;;134.13;58.63;;;;;;;2.83;90.29;99822.45;1770304;80;21088;-61
2020/12/21 19:38:25;;;;;;;129.57;57.37;;;;;;;2.84;90.26;99816.84;1756332;82;21538;-64
2020/12/21 19:40:51;;;;;;;151.57;62.87;;;;;;;2.86;90.21;99821.38;1751876;82;21126;-67
2020/12/21 19:43:16;;;;;;;159.80;63.10;;;;;;;2.79;90.14;99821.38;1756508;81;21122;-64
2020/12/21 19:45:42;;;;;;;153.10;62.70;;;;;;;2.76;90.02;99825.41;1756394;81;21541;-67
2020/12/21 19:48:08;;;;;;;129.07;56.87;;;;;;;2.75;89.68;99823.79;1756367;81;21530;-61
2020/12/21 19:50:34;;;;;;;136.63;59.40;;;;;;;2.71;89.43;99822.71;1756371;80;21526;-58
2020/12/21 19:52:59;;;;;;;133.73;57.80;;;;;;;2.76;89.42;99826.74;1764474;80;21539;-60
2020/12/21 19:55:25;;;;;;;125.67;54.13;;;;;;;2.78;89.46;99823.25;1790796;80;21051;-67
2020/12/21 19:57:51;;;;;;;117.87;54.00;;;;;;;2.78;89.63;99818.42;1790777;80;21075;-62
2020/12/21 20:00:17;;;;;;;115.83;53.60;;;;;;;2.78;89.78;99821.09;1790362;80;21113;-61
2020/12/21 20:02:43;;;;;;;120.47;57.03;;;;;;;2.73;89.86;99825.95;1790551;80;21257;-65
2020/12/21 20:05:09;;;;;;;112.40;53.97;;;;;;;2.73;89.93;99818.44;1782400;80;21073;-63
2020/12/21 20:07:38;;;;;;;121.20;55.87;;;;;;;2.73;89.82;99821.12;1755922;80;21275;-65
2020/12/21 20:10:05;;;;;;;113.93;54.70;;;;;;;2.65;89.70;99813.61;1755469;82;21129;-65
2020/12/21 20:12:32;;;;;;;113.30;55.97;;;;;;;2.62;89.56;99814.15;1755437;81;21106;-67
2020/12/21 20:14:57;;;;;;;113.43;54.90;;;;;;;2.61;89.34;99813.34;1752138;82;21139;-64
2020/12/21 20:17:25;;;;;;;120.67;55.43;;;;;;;2.47;89.24;99799.41;1747657;82;21544;-65
2020/12/21 20:19:51;;;;;;;117.90;53.97;;;;;;;2.55;89.18;99808.25;1750783;80;21150;-63
2020/12/21 20:22:17;;;;;;;105.77;49.83;;;;;;;2.59;89.34;99808.77;1778260;81;21135;-66
2020/12/21 20:24:43;;;;;;;110.63;51.13;;;;;;;2.63;89.52;99806.36;1778383;81;21555;-66
2020/12/21 20:27:09;;;;;;;99.13;49.13;;;;;;;2.68;89.57;99801.02;1778168;81;21208;-65
2020/12/21 20:29:34;;;;;;;103.53;50.97;;;;;;;2.69;89.60;99795.94;1778197;81;21114;-63
2020/12/21 20:32:01;;;;;;;103.40;51.77;;;;;;;2.64;89.46;99797.27;1778141;81;21155;-66
2020/12/21 20:34:27;;;;;;;104.10;52.27;;;;;;;2.56;89.30;99797.79;1778188;81;21275;-66
2020/12/21 20:36:53;;;;;;;107.40;52.97;;;;;;;2.56;89.13;99799.94;1778022;81;21144;-64
2020/12/21 20:39:19;;;;;;;75.90;35.03;;;;;;;2.59;88.72;99798.05;1778362;81;21122;-63
2020/12/21 20:41:45;;;;;;;112.67;52.23;;;;;;;2.47;88.61;99788.69;1778035;81;21087;-66
2020/12/21 20:44:11;;;;;;;101.33;51.53;;;;;;;2.52;88.29;99777.97;1778227;81;21138;-69
2020/12/21 20:46:36;;;;;;;104.67;49.17;;;;;;;2.49;88.45;99781.98;1778352;80;21110;-69
2020/12/21 20:49:04;;;;;;;102.20;50.53;;;;;;;2.48;88.71;99784.39;1778323;81;21098;-69
2020/12/21 20:51:30;;;;;;;105.47;48.30;;;;;;;2.47;88.88;99780.66;1744828;81;21134;-71
2020/12/21 20:53:56;;;;;;;98.93;47.83;;;;;;;2.46;89.01;99788.41;1736832;82;21583;-70
2020/12/21 20:56:22;;;;;;;110.47;50.13;;;;;;;2.46;89.10;99784.40;1743416;81;21114;-69
2020/12/21 20:58:47;;;;;;;113.53;53.53;;;;;;;2.41;88.99;99787.34;1753219;81;21572;-66
2020/12/21 21:01:13;;;;;;;102.00;48.93;;;;;;;2.36;88.83;99786.55;1748808;82;21531;-65
2020/12/21 21:03:39;;;;;;;100.53;49.77;;;;;;;2.34;88.53;99784.12;1748458;82;21156;-66
2020/12/21 21:06:05;;;;;;;100.27;44.90;;;;;;;2.32;88.30;99788.14;1741697;81;21086;-68
2020/12/21 21:08:31;;;;;;;105.17;49.70;;;;;;;2.23;88.40;99791.05;1737867;82;21161;-67
2020/12/21 21:11:00;;;;;;;100.60;51.97;;;;;;;2.24;88.35;99796.69;1737604;82;21138;-68
2020/12/21 21:13:26;;;;;;;110.63;52.40;;;;;;;2.19;88.55;99798.81;1737655;82;21705;-67
2020/12/21 21:15:52;;;;;;;98.90;48.07;;;;;;;2.22;88.83;99793.45;1762146;80;21097;-66
2020/12/21 21:18:17;;;;;;;110.93;54.80;;;;;;;2.26;88.96;99788.66;1787435;80;21124;-68
2020/12/21 21:20:43;;;;;;;109.00;51.70;;;;;;;2.31;89.07;99786.52;1772750;80;21089;-69
2020/12/21 21:23:09;;;;;;;99.80;51.57;;;;;;;2.35;89.11;99787.08;1756336;82;21135;-67
2020/12/21 21:25:35;;;;;;;103.43;51.90;;;;;;;2.34;88.99;99772.07;1756389;82;21522;-67
2020/12/21 21:28:03;;;;;;;103.70;50.73;;;;;;;2.37;88.68;99779.56;1756671;82;21562;-67
2020/12/21 21:30:28;;;;;;;105.07;52.03;;;;;;;2.36;88.31;99777.17;1756089;82;21098;-66
2020/12/21 21:32:54;;;;;;;97.17;49.03;;;;;;;2.34;88.01;99768.59;1756668;82;21535;-70
2020/12/21 21:35:20;;;;;;;92.13;47.80;;;;;;;2.32;87.74;99770.74;1767067;80;21143;-67
2020/12/21 21:37:47;;;;;;;97.50;48.20;;;;;;;2.25;87.54;99762.17;1790266;80;21115;-65
2020/12/21 21:40:13;;;;;;;96.83;48.93;;;;;;;2.31;87.43;99762.43;1787780;80;21512;-62
2020/12/21 21:42:39;;;;;;;97.77;47.80;;;;;;;2.29;87.69;99761.34;1790963;80;21111;-67
2020/12/21 21:45:04;;;;;;;100.67;50.03;;;;;;;2.02;87.63;99754.63;1790687;80;21532;-68
2020/12/21 21:47:30;;;;;;;104.53;50.67;;;;;;;1.95;88.11;99750.31;1790486;80;21067;-66
2020/12/21 21:49:56;;;;;;;108.10;52.20;;;;;;;1.94;88.48;99754.61;1785245;80;21084;-68
2020/12/21 21:52:22;;;;;;;108.20;50.70;;;;;;;2.00;88.70;99751.39;1756449;82;21094;-70
2020/12/21 21:54:48;;;;;;;109.40;52.37;;;;;;;2.04;88.82;99750.61;1756862;82;21114;-64
2020/12/21 21:57:13;;;;;;;119.10;53.53;;;;;;;2.04;88.71;99752.48;1756423;81;21139;-70
2020/12/21 21:59:39;;;;;;;111.07;53.27;;;;;;;2.00;88.65;99759.42;1774140;81;21152;-67
2020/12/21 22:02:05;;;;;;;107.80;54.30;;;;;;;2.04;88.36;99760.50;1769619;81;21156;-70
2020/12/21 22:04:31;;;;;;;106.90;52.60;;;;;;;2.05;88.16;99748.21;1756273;82;21581;-59
2020/12/21 22:06:57;;;;;;;103.83;52.03;;;;;;;2.06;88.03;99744.48;1756296;82;21257;-65
2020/12/21 22:09:23;;;;;;;100.77;50.47;;;;;;;2.19;87.83;99745.28;1756521;82;21177;-62
2020/12/21 22:11:49;;;;;;;97.27;48.80;;;;;;;2.28;87.89;99747.72;1756415;82;21151;-64
2020/12/21 22:14:15;;;;;;;100.77;49.90;;;;;;;2.37;87.97;99748.78;1756608;82;21063;-65
2020/12/21 22:16:41;;;;;;;106.40;52.27;;;;;;;2.43;88.10;99736.22;1747822;82;21114;-62
2020/12/21 22:19:07;;;;;;;99.57;48.70;;;;;;;2.49;88.05;99731.11;1746619;82;21122;-63
2020/12/21 22:21:34;;;;;;;93.67;49.63;;;;;;;2.46;87.71;99728.17;1746578;82;21570;-64
2020/12/21 22:23:59;;;;;;;107.77;52.47;;;;;;;2.39;87.59;99715.87;1746468;82;21135;-61
2020/12/21 22:26:26;;;;;;;100.33;51.57;;;;;;;2.03;87.18;99710.20;1746955;82;21520;-64
2020/12/21 22:28:52;;;;;;;87.33;48.37;;;;;;;1.94;87.46;99698.43;1746891;82;21114;-63
2020/12/21 22:31:18;;;;;;;100.43;49.13;;;;;;;1.92;87.65;99700.02;1746837;82;21495;-63
2020/12/21 22:33:45;;;;;;;90.57;46.57;;;;;;;1.92;87.97;99702.69;1746712;82;21090;-65
2020/12/21 22:36:11;;;;;;;90.27;46.73;;;;;;;1.96;88.14;99710.99;1746754;82;21157;-64
2020/12/21 22:38:37;;;;;;;90.37;47.47;;;;;;;1.99;88.29;99706.44;1746390;82;21173;-64
2020/12/21 22:41:02;;;;;;;105.00;52.27;;;;;;;1.97;88.15;99697.89;1746504;82;21557;-66
2020/12/21 22:43:28;;;;;;;105.00;50.47;;;;;;;1.91;87.97;99689.60;1746865;82;21106;-65
2020/12/21 22:45:54;;;;;;;95.67;50.23;;;;;;;1.91;87.72;99697.06;1746347;82;21102;-66
2020/12/21 22:48:20;;;;;;;101.93;51.20;;;;;;;1.91;87.48;99705.09;1746755;82;21236;-65
2020/12/21 22:50:45;;;;;;;106.50;50.93;;;;;;;1.88;87.27;99695.45;1746492;82;21681;-67
2020/12/21 22:53:11;;;;;;;95.87;50.03;;;;;;;1.87;87.30;99694.68;1746498;82;21098;-65
2020/12/21 22:55:37;;;;;;;106.23;52.47;;;;;;;1.86;87.41;99697.61;1746768;82;21081;-65
2020/12/21 22:58:03;;;;;;;97.40;49.60;;;;;;;1.81;87.62;99694.38;1746787;82;21552;-65
2020/12/21 23:00:33;;;;;;;96.97;49.03;;;;;;;1.76;87.76;99701.61;1747089;82;21507;-65
2020/12/21 23:02:59;;;;;;;97.33;49.33;;;;;;;1.68;87.98;99694.91;1746899;82;21118;-65
2020/12/21 23:05:26;;;;;;;101.50;51.97;;;;;;;1.67;88.05;99688.47;1746806;82;21110;-61
2020/12/21 23:07:52;;;;;;;101.07;52.90;;;;;;;1.58;87.95;99684.69;1747117;82;21144;-62
2020/12/21 23:10:18;;;;;;;97.53;51.70;;;;;;;1.47;87.93;99681.19;1746431;82;21147;-64
2020/12/21 23:12:44;;;;;;;100.67;51.17;;;;;;;1.17;88.24;99684.55;1746279;82;21577;-67
2020/12/21 23:15:10;;;;;;;101.73;49.10;;;;;;;1.07;88.09;99683.17;1759303;81;21213;-66
2020/12/21 23:17:35;;;;;;;102.57;52.50;;;;;;;1.10;88.12;99689.85;1773100;81;21043;-66
2020/12/21 23:20:01;;;;;;;107.80;53.00;;;;;;;1.09;88.13;99690.94;1771256;81;21118;-65
2020/12/21 23:22:28;;;;;;;99.07;50.03;;;;;;;1.06;88.33;99680.22;1768265;81;21613;-63
2020/12/21 23:24:53;;;;;;;100.07;50.20;;;;;;;0.97;88.58;99676.45;1772142;81;21087;-62
2020/12/21 23:27:19;;;;;;;103.70;49.50;;;;;;;0.87;88.89;99670.51;1769038;81;21167;-65
2020/12/21 23:29:45;;;;;;;93.73;49.10;;;;;;;0.84;89.01;99661.69;1763722;81;21100;-64
2020/12/21 23:32:11;;;;;;;96.50;47.33;;;;;;;0.81;89.18;99660.88;1768858;81;21080;-65
2020/12/21 23:34:37;;;;;;;101.40;49.83;;;;;;;0.74;89.20;99655.49;1770808;81;21520;-60
2020/12/21 23:37:02;;;;;;;100.33;49.67;;;;;;;0.68;89.16;99664.52;1766240;81;21098;-64
2020/12/21 23:39:28;;;;;;;101.17;48.63;;;;;;;0.64;88.98;99664.78;1768428;81;21050;-58
2020/12/21 23:41:54;;;;;;;97.37;47.47;;;;;;;0.58;89.20;99659.12;1767909;80;21101;-64
2020/12/21 23:44:20;;;;;;;97.27;46.80;;;;;;;0.61;89.06;99661.27;1767616;81;21156;-65
2020/12/21 23:46:45;;;;;;;103.10;49.17;;;;;;;0.60;89.21;99663.13;1768109;81;21104;-64
2020/12/21 23:49:11;;;;;;;97.43;47.03;;;;;;;0.60;89.42;99661.02;1767812;81;21125;-64
2020/12/21 23:51:37;;;;;;;88.73;45.40;;;;;;;0.61;89.53;99654.06;1767949;81;21567;-65
2020/12/21 23:54:03;;;;;;;102.67;47.37;;;;;;;0.65;89.61;99653.83;1767775;81;21213;-66
2020/12/21 23:56:28;;;;;;;103.87;49.20;;;;;;;0.59;89.59;99644.72;1767629;81;21201;-62
2020/12/21 23:58:54;;;;;;;92.60;46.87;;;;;;;0.55;89.52;99651.11;1767884;81;21128;-65
